Terminal Aerodrome Forecast
Issued by NWS Paducah, KY

Current Version | Previous Version | Text Only | Print | Product List | Glossary On
Versions: 1 2 3 4 5 6 7 8 9 10 11 12
000
FTUS43 KPAH 201100
TAFEVV
TAF
KEVV 201121Z 2012/2112 VRB03KT P6SM FEW250
     FM201800 17005KT P6SM BKN250
     FM210100 VRB03KT P6SM SCT130 BKN250=

USA.gov is the U.S. government's official web portal to all federal, state and local government web resources and services.